sensor_id;sensor_type;location;lat;lon;timestamp;P1;durP1;ratioP1;P2;durP2;ratioP2
2041;SDS011;1026;51.460;7.252;2022-12-11T00:00:44;17.73;;;9.80;;
2041;SDS011;1026;51.460;7.252;2022-12-11T00:03:10;18.60;;;10.57;;
2041;SDS011;1026;51.460;7.252;2022-12-11T00:05:37;25.53;;;13.30;;
2041;SDS011;1026;51.460;7.252;2022-12-11T00:08:04;24.10;;;12.63;;
2041;SDS011;1026;51.460;7.252;2022-12-11T00:10:29;23.27;;;11.80;;
2041;SDS011;1026;51.460;7.252;2022-12-11T00:12:55;16.47;;;9.10;;
2041;SDS011;1026;51.460;7.252;2022-12-11T00:15:21;19.10;;;11.20;;
2041;SDS011;1026;51.460;7.252;2022-12-11T00:17:46;18.60;;;9.37;;
2041;SDS011;1026;51.460;7.252;2022-12-11T00:20:12;14.63;;;9.07;;
2041;SDS011;1026;51.460;7.252;2022-12-11T00:22:38;20.33;;;10.13;;
2041;SDS011;1026;51.460;7.252;2022-12-11T00:25:03;19.23;;;10.57;;
2041;SDS011;1026;51.460;7.252;2022-12-11T00:27:29;21.23;;;11.70;;
2041;SDS011;1026;51.460;7.252;2022-12-11T00:29:55;21.23;;;10.67;;
2041;SDS011;1026;51.460;7.252;2022-12-11T00:32:21;19.47;;;10.70;;
2041;SDS011;1026;51.460;7.252;2022-12-11T00:34:47;18.03;;;9.97;;
2041;SDS011;1026;51.460;7.252;2022-12-11T00:37:12;16.10;;;10.03;;
2041;SDS011;1026;51.460;7.252;2022-12-11T00:39:38;23.47;;;11.83;;
2041;SDS011;1026;51.460;7.252;2022-12-11T00:42:04;17.60;;;10.50;;
2041;SDS011;1026;51.460;7.252;2022-12-11T00:44:30;21.03;;;10.93;;
2041;SDS011;1026;51.460;7.252;2022-12-11T00:46:56;16.30;;;9.43;;
2041;SDS011;1026;51.460;7.252;2022-12-11T00:49:22;11.47;;;8.50;;
2041;SDS011;1026;51.460;7.252;2022-12-11T00:51:47;19.57;;;10.60;;
2041;SDS011;1026;51.460;7.252;2022-12-11T00:54:13;19.40;;;10.40;;
2041;SDS011;1026;51.460;7.252;2022-12-11T00:56:38;20.93;;;9.47;;
2041;SDS011;1026;51.460;7.252;2022-12-11T00:59:04;20.67;;;10.33;;
2041;SDS011;1026;51.460;7.252;2022-12-11T01:01:30;17.03;;;9.53;;
2041;SDS011;1026;51.460;7.252;2022-12-11T01:03:56;16.37;;;8.67;;
2041;SDS011;1026;51.460;7.252;2022-12-11T01:06:22;13.60;;;8.33;;
2041;SDS011;1026;51.460;7.252;2022-12-11T01:08:50;22.37;;;10.03;;
2041;SDS011;1026;51.460;7.252;2022-12-11T01:11:31;14.87;;;9.63;;
2041;SDS011;1026;51.460;7.252;2022-12-11T01:13:57;21.90;;;10.10;;
2041;SDS011;1026;51.460;7.252;2022-12-11T01:16:22;18.40;;;9.60;;
2041;SDS011;1026;51.460;7.252;2022-12-11T01:18:48;17.77;;;10.90;;
2041;SDS011;1026;51.460;7.252;2022-12-11T01:21:13;18.03;;;10.57;;
2041;SDS011;1026;51.460;7.252;2022-12-11T01:23:39;18.07;;;10.50;;
2041;SDS011;1026;51.460;7.252;2022-12-11T01:26:06;19.47;;;9.73;;
2041;SDS011;1026;51.460;7.252;2022-12-11T01:28:34;26.57;;;11.97;;
2041;SDS011;1026;51.460;7.252;2022-12-11T01:30:59;24.83;;;11.63;;
2041;SDS011;1026;51.460;7.252;2022-12-11T01:33:25;31.27;;;13.93;;
2041;SDS011;1026;51.460;7.252;2022-12-11T01:35:51;18.67;;;8.47;;
2041;SDS011;1026;51.460;7.252;2022-12-11T01:38:17;22.00;;;10.10;;
2041;SDS011;1026;51.460;7.252;2022-12-11T01:40:45;21.20;;;10.63;;
2041;SDS011;1026;51.460;7.252;2022-12-11T01:43:11;14.90;;;8.50;;
2041;SDS011;1026;51.460;7.252;2022-12-11T01:45:38;18.77;;;11.30;;
2041;SDS011;1026;51.460;7.252;2022-12-11T01:48:09;33.63;;;12.23;;
2041;SDS011;1026;51.460;7.252;2022-12-11T01:50:52;20.80;;;10.67;;
2041;SDS011;1026;51.460;7.252;2022-12-11T01:53:22;21.17;;;12.37;;
2041;SDS011;1026;51.460;7.252;2022-12-11T01:55:54;29.33;;;13.40;;
2041;SDS011;1026;51.460;7.252;2022-12-11T01:58:21;27.13;;;10.37;;
2041;SDS011;1026;51.460;7.252;2022-12-11T02:00:49;31.60;;;14.20;;
2041;SDS011;1026;51.460;7.252;2022-12-11T02:03:16;19.10;;;9.53;;
2041;SDS011;1026;51.460;7.252;2022-12-11T02:05:42;21.63;;;10.97;;
2041;SDS011;1026;51.460;7.252;2022-12-11T02:08:08;23.17;;;12.20;;
2041;SDS011;1026;51.460;7.252;2022-12-11T02:10:39;22.50;;;12.53;;
2041;SDS011;1026;51.460;7.252;2022-12-11T02:13:10;44.80;;;17.70;;
2041;SDS011;1026;51.460;7.252;2022-12-11T02:15:41;19.97;;;11.10;;
2041;SDS011;1026;51.460;7.252;2022-12-11T02:21:02;20.00;;;10.00;;
2041;SDS011;1026;51.460;7.252;2022-12-11T02:26:35;24.13;;;10.90;;
2041;SDS011;1026;51.460;7.252;2022-12-11T02:29:12;18.47;;;9.63;;
2041;SDS011;1026;51.460;7.252;2022-12-11T02:31:49;23.87;;;11.63;;
2041;SDS011;1026;51.460;7.252;2022-12-11T02:37:02;22.10;;;9.57;;
2041;SDS011;1026;51.460;7.252;2022-12-11T02:39:31;29.27;;;12.43;;
2041;SDS011;1026;51.460;7.252;2022-12-11T02:42:00;27.47;;;11.73;;
2041;SDS011;1026;51.460;7.252;2022-12-11T02:44:28;15.40;;;8.73;;
2041;SDS011;1026;51.460;7.252;2022-12-11T02:46:56;24.43;;;12.30;;
2041;SDS011;1026;51.460;7.252;2022-12-11T02:49:23;22.43;;;10.27;;
2041;SDS011;1026;51.460;7.252;2022-12-11T02:51:50;21.10;;;10.97;;
2041;SDS011;1026;51.460;7.252;2022-12-11T02:54:19;28.67;;;14.30;;
2041;SDS011;1026;51.460;7.252;2022-12-11T02:56:50;27.20;;;12.27;;
2041;SDS011;1026;51.460;7.252;2022-12-11T02:59:23;32.00;;;15.10;;
2041;SDS011;1026;51.460;7.252;2022-12-11T03:01:54;21.43;;;10.93;;
2041;SDS011;1026;51.460;7.252;2022-12-11T03:04:19;20.90;;;10.73;;
2041;SDS011;1026;51.460;7.252;2022-12-11T03:06:49;21.97;;;12.30;;
2041;SDS011;1026;51.460;7.252;2022-12-11T03:09:18;21.93;;;11.77;;
2041;SDS011;1026;51.460;7.252;2022-12-11T03:11:44;18.27;;;10.67;;
2041;SDS011;1026;51.460;7.252;2022-12-11T03:14:10;24.87;;;11.67;;
2041;SDS011;1026;51.460;7.252;2022-12-11T03:16:38;22.97;;;11.50;;
2041;SDS011;1026;51.460;7.252;2022-12-11T03:19:17;31.90;;;14.50;;
2041;SDS011;1026;51.460;7.252;2022-12-11T03:21:53;28.93;;;14.23;;
2041;SDS011;1026;51.460;7.252;2022-12-11T03:26:57;21.47;;;11.40;;
2041;SDS011;1026;51.460;7.252;2022-12-11T03:29:30;21.07;;;11.97;;
2041;SDS011;1026;51.460;7.252;2022-12-11T03:32:03;24.80;;;11.97;;
2041;SDS011;1026;51.460;7.252;2022-12-11T03:37:06;18.30;;;9.93;;
2041;SDS011;1026;51.460;7.252;2022-12-11T03:39:35;26.40;;;12.33;;
2041;SDS011;1026;51.460;7.252;2022-12-11T03:42:05;20.00;;;10.63;;
2041;SDS011;1026;51.460;7.252;2022-12-11T03:44:34;22.50;;;10.73;;
2041;SDS011;1026;51.460;7.252;2022-12-11T03:47:01;23.57;;;12.80;;
2041;SDS011;1026;51.460;7.252;2022-12-11T03:49:32;27.07;;;13.07;;
2041;SDS011;1026;51.460;7.252;2022-12-11T03:52:00;21.47;;;10.00;;
2041;SDS011;1026;51.460;7.252;2022-12-11T03:54:29;23.87;;;12.90;;
2041;SDS011;1026;51.460;7.252;2022-12-11T03:56:55;24.10;;;10.33;;
2041;SDS011;1026;51.460;7.252;2022-12-11T03:59:24;22.63;;;12.30;;
2041;SDS011;1026;51.460;7.252;2022-12-11T04:01:50;20.37;;;11.47;;
2041;SDS011;1026;51.460;7.252;2022-12-11T04:04:16;17.03;;;9.87;;
2041;SDS011;1026;51.460;7.252;2022-12-11T04:06:41;20.30;;;10.30;;
2041;SDS011;1026;51.460;7.252;2022-12-11T04:09:07;23.37;;;10.53;;
2041;SDS011;1026;51.460;7.252;2022-12-11T04:11:33;14.83;;;9.50;;
2041;SDS011;1026;51.460;7.252;2022-12-11T04:13:59;29.97;;;12.93;;
2041;SDS011;1026;51.460;7.252;2022-12-11T04:16:48;19.23;;;11.80;;
2041;SDS011;1026;51.460;7.252;2022-12-11T04:19:14;19.97;;;9.93;;
2041;SDS011;1026;51.460;7.252;2022-12-11T04:21:56;19.90;;;10.07;;
2041;SDS011;1026;51.460;7.252;2022-12-11T04:24:37;22.17;;;12.90;;
2041;SDS011;1026;51.460;7.252;2022-12-11T04:27:02;20.53;;;9.60;;
2041;SDS011;1026;51.460;7.252;2022-12-11T04:29:28;20.37;;;10.40;;
2041;SDS011;1026;51.460;7.252;2022-12-11T04:31:54;17.60;;;9.70;;
2041;SDS011;1026;51.460;7.252;2022-12-11T04:34:19;19.10;;;8.80;;
2041;SDS011;1026;51.460;7.252;2022-12-11T04:36:45;18.13;;;10.50;;
2041;SDS011;1026;51.460;7.252;2022-12-11T04:39:10;14.53;;;9.03;;
2041;SDS011;1026;51.460;7.252;2022-12-11T04:41:36;22.70;;;11.27;;
2041;SDS011;1026;51.460;7.252;2022-12-11T04:44:03;17.30;;;9.57;;
2041;SDS011;1026;51.460;7.252;2022-12-11T04:46:29;19.90;;;9.77;;
2041;SDS011;1026;51.460;7.252;2022-12-11T04:48:54;20.87;;;10.70;;
2041;SDS011;1026;51.460;7.252;2022-12-11T04:51:20;16.77;;;9.20;;
2041;SDS011;1026;51.460;7.252;2022-12-11T04:53:47;20.57;;;10.60;;
2041;SDS011;1026;51.460;7.252;2022-12-11T04:56:13;18.60;;;9.90;;
2041;SDS011;1026;51.460;7.252;2022-12-11T04:58:40;18.03;;;9.90;;
2041;SDS011;1026;51.460;7.252;2022-12-11T05:01:07;18.23;;;10.93;;
2041;SDS011;1026;51.460;7.252;2022-12-11T05:03:35;20.00;;;10.80;;
2041;SDS011;1026;51.460;7.252;2022-12-11T05:06:01;20.40;;;9.57;;
2041;SDS011;1026;51.460;7.252;2022-12-11T05:08:27;14.50;;;8.83;;
2041;SDS011;1026;51.460;7.252;2022-12-11T05:11:01;27.17;;;12.40;;
2041;SDS011;1026;51.460;7.252;2022-12-11T05:13:28;17.17;;;9.37;;
2041;SDS011;1026;51.460;7.252;2022-12-11T05:15:54;18.63;;;10.30;;
2041;SDS011;1026;51.460;7.252;2022-12-11T05:18:21;25.93;;;10.77;;
2041;SDS011;1026;51.460;7.252;2022-12-11T05:20:55;21.57;;;10.80;;
2041;SDS011;1026;51.460;7.252;2022-12-11T05:23:22;18.53;;;9.70;;
2041;SDS011;1026;51.460;7.252;2022-12-11T05:25:51;18.80;;;10.30;;
2041;SDS011;1026;51.460;7.252;2022-12-11T05:28:18;19.40;;;11.17;;
2041;SDS011;1026;51.460;7.252;2022-12-11T05:30:44;21.43;;;11.10;;
2041;SDS011;1026;51.460;7.252;2022-12-11T05:33:10;17.07;;;8.70;;
2041;SDS011;1026;51.460;7.252;2022-12-11T05:35:35;20.43;;;9.80;;
2041;SDS011;1026;51.460;7.252;2022-12-11T05:38:01;17.10;;;10.40;;
2041;SDS011;1026;51.460;7.252;2022-12-11T05:40:27;18.73;;;9.17;;
2041;SDS011;1026;51.460;7.252;2022-12-11T05:42:52;19.80;;;10.83;;
2041;SDS011;1026;51.460;7.252;2022-12-11T05:45:18;17.97;;;9.70;;
2041;SDS011;1026;51.460;7.252;2022-12-11T05:47:44;14.43;;;8.43;;
2041;SDS011;1026;51.460;7.252;2022-12-11T05:50:09;19.83;;;9.93;;
2041;SDS011;1026;51.460;7.252;2022-12-11T05:52:35;18.77;;;10.57;;
2041;SDS011;1026;51.460;7.252;2022-12-11T05:55:01;17.10;;;9.00;;
2041;SDS011;1026;51.460;7.252;2022-12-11T05:57:27;16.17;;;9.47;;
2041;SDS011;1026;51.460;7.252;2022-12-11T05:59:52;13.53;;;7.77;;
2041;SDS011;1026;51.460;7.252;2022-12-11T06:02:18;20.33;;;10.47;;
2041;SDS011;1026;51.460;7.252;2022-12-11T06:04:43;21.33;;;8.10;;
2041;SDS011;1026;51.460;7.252;2022-12-11T06:07:09;15.23;;;8.93;;
2041;SDS011;1026;51.460;7.252;2022-12-11T06:09:35;16.30;;;9.13;;
2041;SDS011;1026;51.460;7.252;2022-12-11T06:12:00;16.53;;;9.20;;
2041;SDS011;1026;51.460;7.252;2022-12-11T06:14:26;16.10;;;9.53;;
2041;SDS011;1026;51.460;7.252;2022-12-11T06:16:52;14.17;;;8.80;;
2041;SDS011;1026;51.460;7.252;2022-12-11T06:19:17;17.70;;;10.07;;
2041;SDS011;1026;51.460;7.252;2022-12-11T06:21:44;16.77;;;8.93;;
2041;SDS011;1026;51.460;7.252;2022-12-11T06:24:10;17.07;;;8.63;;
2041;SDS011;1026;51.460;7.252;2022-12-11T06:26:36;14.60;;;7.73;;
2041;SDS011;1026;51.460;7.252;2022-12-11T06:29:02;17.93;;;8.80;;
2041;SDS011;1026;51.460;7.252;2022-12-11T06:31:28;16.17;;;8.30;;
2041;SDS011;1026;51.460;7.252;2022-12-11T06:33:53;15.27;;;8.00;;
2041;SDS011;1026;51.460;7.252;2022-12-11T06:36:20;16.67;;;9.07;;
2041;SDS011;1026;51.460;7.252;2022-12-11T06:38:48;14.37;;;8.63;;
2041;SDS011;1026;51.460;7.252;2022-12-11T06:41:14;17.90;;;8.30;;
2041;SDS011;1026;51.460;7.252;2022-12-11T06:43:40;17.23;;;8.77;;
2041;SDS011;1026;51.460;7.252;2022-12-11T06:46:08;16.43;;;8.27;;
2041;SDS011;1026;51.460;7.252;2022-12-11T06:48:35;16.90;;;8.33;;
2041;SDS011;1026;51.460;7.252;2022-12-11T06:51:05;15.53;;;9.50;;
2041;SDS011;1026;51.460;7.252;2022-12-11T06:53:33;19.00;;;9.10;;
2041;SDS011;1026;51.460;7.252;2022-12-11T06:56:07;14.13;;;8.27;;
2041;SDS011;1026;51.460;7.252;2022-12-11T06:58:36;13.10;;;7.27;;
2041;SDS011;1026;51.460;7.252;2022-12-11T07:01:03;14.50;;;8.87;;
2041;SDS011;1026;51.460;7.252;2022-12-11T07:03:29;16.97;;;10.13;;
2041;SDS011;1026;51.460;7.252;2022-12-11T07:05:59;19.50;;;10.47;;
2041;SDS011;1026;51.460;7.252;2022-12-11T07:08:26;15.73;;;8.17;;
2041;SDS011;1026;51.460;7.252;2022-12-11T07:10:53;13.37;;;8.20;;
2041;SDS011;1026;51.460;7.252;2022-12-11T07:13:19;13.60;;;8.10;;
2041;SDS011;1026;51.460;7.252;2022-12-11T07:15:44;19.03;;;9.40;;
2041;SDS011;1026;51.460;7.252;2022-12-11T07:18:10;12.57;;;7.43;;
2041;SDS011;1026;51.460;7.252;2022-12-11T07:20:36;16.17;;;10.83;;
2041;SDS011;1026;51.460;7.252;2022-12-11T07:23:02;16.77;;;8.27;;
2041;SDS011;1026;51.460;7.252;2022-12-11T07:25:27;19.20;;;7.87;;
2041;SDS011;1026;51.460;7.252;2022-12-11T07:27:53;14.50;;;8.50;;
2041;SDS011;1026;51.460;7.252;2022-12-11T07:30:18;12.60;;;8.20;;
2041;SDS011;1026;51.460;7.252;2022-12-11T07:32:44;14.90;;;8.00;;
2041;SDS011;1026;51.460;7.252;2022-12-11T07:35:10;15.97;;;8.80;;
2041;SDS011;1026;51.460;7.252;2022-12-11T07:37:35;15.13;;;7.87;;
2041;SDS011;1026;51.460;7.252;2022-12-11T07:40:04;11.97;;;8.10;;
2041;SDS011;1026;51.460;7.252;2022-12-11T07:42:30;18.57;;;8.13;;
2041;SDS011;1026;51.460;7.252;2022-12-11T07:44:55;11.60;;;7.50;;
2041;SDS011;1026;51.460;7.252;2022-12-11T07:47:21;17.73;;;11.13;;
2041;SDS011;1026;51.460;7.252;2022-12-11T07:49:46;13.67;;;8.10;;
2041;SDS011;1026;51.460;7.252;2022-12-11T07:52:12;16.80;;;9.93;;
2041;SDS011;1026;51.460;7.252;2022-12-11T07:54:38;12.80;;;7.40;;
2041;SDS011;1026;51.460;7.252;2022-12-11T07:57:04;15.60;;;8.70;;
2041;SDS011;1026;51.460;7.252;2022-12-11T07:59:30;13.10;;;7.60;;
2041;SDS011;1026;51.460;7.252;2022-12-11T08:01:56;13.63;;;6.97;;
2041;SDS011;1026;51.460;7.252;2022-12-11T08:04:21;17.10;;;9.00;;
2041;SDS011;1026;51.460;7.252;2022-12-11T08:06:47;12.53;;;8.03;;
2041;SDS011;1026;51.460;7.252;2022-12-11T08:09:13;11.33;;;7.43;;
2041;SDS011;1026;51.460;7.252;2022-12-11T08:11:38;14.53;;;9.13;;
2041;SDS011;1026;51.460;7.252;2022-12-11T08:14:04;14.43;;;8.10;;
2041;SDS011;1026;51.460;7.252;2022-12-11T08:16:31;17.47;;;7.50;;
2041;SDS011;1026;51.460;7.252;2022-12-11T08:18:57;16.10;;;8.30;;
2041;SDS011;1026;51.460;7.252;2022-12-11T08:21:24;13.90;;;7.80;;
2041;SDS011;1026;51.460;7.252;2022-12-11T08:23:51;12.80;;;7.80;;
2041;SDS011;1026;51.460;7.252;2022-12-11T08:26:19;16.10;;;7.90;;
2041;SDS011;1026;51.460;7.252;2022-12-11T08:28:46;16.43;;;9.10;;
2041;SDS011;1026;51.460;7.252;2022-12-11T08:31:16;13.47;;;8.20;;
2041;SDS011;1026;51.460;7.252;2022-12-11T08:33:42;13.13;;;6.87;;
2041;SDS011;1026;51.460;7.252;2022-12-11T08:36:10;14.30;;;7.07;;
2041;SDS011;1026;51.460;7.252;2022-12-11T08:38:37;14.60;;;7.10;;
2041;SDS011;1026;51.460;7.252;2022-12-11T08:41:07;15.10;;;8.50;;
2041;SDS011;1026;51.460;7.252;2022-12-11T08:43:35;14.33;;;9.10;;
2041;SDS011;1026;51.460;7.252;2022-12-11T08:46:01;14.00;;;8.30;;
2041;SDS011;1026;51.460;7.252;2022-12-11T08:48:26;14.73;;;7.80;;
2041;SDS011;1026;51.460;7.252;2022-12-11T08:50:52;15.03;;;9.67;;
2041;SDS011;1026;51.460;7.252;2022-12-11T08:53:17;14.63;;;7.43;;
2041;SDS011;1026;51.460;7.252;2022-12-11T08:55:43;16.07;;;8.20;;
2041;SDS011;1026;51.460;7.252;2022-12-11T08:58:09;11.77;;;7.57;;
2041;SDS011;1026;51.460;7.252;2022-12-11T09:00:34;16.80;;;8.97;;
2041;SDS011;1026;51.460;7.252;2022-12-11T09:03:00;13.20;;;7.23;;
2041;SDS011;1026;51.460;7.252;2022-12-11T09:05:25;9.10;;;7.00;;
2041;SDS011;1026;51.460;7.252;2022-12-11T09:07:51;13.60;;;7.43;;
2041;SDS011;1026;51.460;7.252;2022-12-11T09:10:17;12.77;;;7.10;;
2041;SDS011;1026;51.460;7.252;2022-12-11T09:12:42;21.57;;;10.37;;
2041;SDS011;1026;51.460;7.252;2022-12-11T09:15:08;13.83;;;8.10;;
2041;SDS011;1026;51.460;7.252;2022-12-11T09:17:34;10.90;;;7.43;;
2041;SDS011;1026;51.460;7.252;2022-12-11T09:20:00;18.37;;;10.67;;
2041;SDS011;1026;51.460;7.252;2022-12-11T09:22:26;14.50;;;8.27;;
2041;SDS011;1026;51.460;7.252;2022-12-11T09:24:52;21.07;;;8.83;;
2041;SDS011;1026;51.460;7.252;2022-12-11T09:27:18;12.57;;;9.07;;
2041;SDS011;1026;51.460;7.252;2022-12-11T09:29:45;12.20;;;7.30;;
2041;SDS011;1026;51.460;7.252;2022-12-11T09:32:11;13.30;;;8.30;;
2041;SDS011;1026;51.460;7.252;2022-12-11T09:34:36;12.05;;;8.23;;
2041;SDS011;1026;51.460;7.252;2022-12-11T09:37:02;16.27;;;7.57;;
2041;SDS011;1026;51.460;7.252;2022-12-11T09:39:28;11.93;;;6.90;;
2041;SDS011;1026;51.460;7.252;2022-12-11T09:41:58;13.93;;;8.40;;
2041;SDS011;1026;51.460;7.252;2022-12-11T09:47:15;12.67;;;7.60;;
2041;SDS011;1026;51.460;7.252;2022-12-11T09:49:46;14.30;;;8.10;;
2041;SDS011;1026;51.460;7.252;2022-12-11T09:52:20;11.70;;;6.97;;
2041;SDS011;1026;51.460;7.252;2022-12-11T09:54:53;12.73;;;6.90;;
2041;SDS011;1026;51.460;7.252;2022-12-11T09:58:30;13.30;;;6.70;;
2041;SDS011;1026;51.460;7.252;2022-12-11T10:00:20;12.53;;;7.73;;
2041;SDS011;1026;51.460;7.252;2022-12-11T10:05:49;15.53;;;8.10;;
2041;SDS011;1026;51.460;7.252;2022-12-11T10:14:07;17.30;;;8.10;;
2041;SDS011;1026;51.460;7.252;2022-12-11T10:16:44;13.10;;;7.30;;
2041;SDS011;1026;51.460;7.252;2022-12-11T10:19:14;15.93;;;10.13;;
2041;SDS011;1026;51.460;7.252;2022-12-11T10:21:44;17.40;;;10.13;;
2041;SDS011;1026;51.460;7.252;2022-12-11T10:30:18;15.43;;;8.20;;
2041;SDS011;1026;51.460;7.252;2022-12-11T10:35:44;10.57;;;6.90;;
2041;SDS011;1026;51.460;7.252;2022-12-11T10:38:21;11.40;;;7.37;;
2041;SDS011;1026;51.460;7.252;2022-12-11T10:40:53;10.70;;;7.20;;
2041;SDS011;1026;51.460;7.252;2022-12-11T10:43:31;14.17;;;7.97;;
2041;SDS011;1026;51.460;7.252;2022-12-11T10:45:58;13.43;;;7.83;;
2041;SDS011;1026;51.460;7.252;2022-12-11T10:48:33;12.97;;;6.50;;
2041;SDS011;1026;51.460;7.252;2022-12-11T10:51:03;14.43;;;8.67;;
2041;SDS011;1026;51.460;7.252;2022-12-11T10:53:31;11.70;;;7.10;;
2041;SDS011;1026;51.460;7.252;2022-12-11T10:55:58;15.17;;;7.77;;
2041;SDS011;1026;51.460;7.252;2022-12-11T10:58:26;12.47;;;7.10;;
2041;SDS011;1026;51.460;7.252;2022-12-11T11:03:28;15.90;;;8.73;;
2041;SDS011;1026;51.460;7.252;2022-12-11T11:06:02;11.43;;;8.20;;
2041;SDS011;1026;51.460;7.252;2022-12-11T11:08:40;22.27;;;12.23;;
2041;SDS011;1026;51.460;7.252;2022-12-11T11:11:15;12.33;;;7.53;;
2041;SDS011;1026;51.460;7.252;2022-12-11T11:14:14;13.50;;;7.23;;
2041;SDS011;1026;51.460;7.252;2022-12-11T11:16:48;9.10;;;5.83;;
2041;SDS011;1026;51.460;7.252;2022-12-11T11:19:17;11.47;;;7.63;;
2041;SDS011;1026;51.460;7.252;2022-12-11T11:21:51;11.43;;;8.13;;
2041;SDS011;1026;51.460;7.252;2022-12-11T11:24:22;12.37;;;7.30;;
2041;SDS011;1026;51.460;7.252;2022-12-11T11:26:51;13.00;;;8.17;;
2041;SDS011;1026;51.460;7.252;2022-12-11T11:29:23;14.93;;;7.40;;
2041;SDS011;1026;51.460;7.252;2022-12-11T11:31:52;11.20;;;6.50;;
2041;SDS011;1026;51.460;7.252;2022-12-11T11:34:19;11.23;;;7.10;;
2041;SDS011;1026;51.460;7.252;2022-12-11T11:36:54;14.40;;;8.53;;
2041;SDS011;1026;51.460;7.252;2022-12-11T11:39:24;12.17;;;7.27;;
2041;SDS011;1026;51.460;7.252;2022-12-11T11:42:07;13.40;;;8.40;;
2041;SDS011;1026;51.460;7.252;2022-12-11T11:44:42;14.63;;;8.23;;
2041;SDS011;1026;51.460;7.252;2022-12-11T11:47:26;12.80;;;7.70;;
2041;SDS011;1026;51.460;7.252;2022-12-11T11:50:19;15.20;;;8.13;;
2041;SDS011;1026;51.460;7.252;2022-12-11T11:53:03;11.60;;;7.10;;
2041;SDS011;1026;51.460;7.252;2022-12-11T11:55:52;14.60;;;7.87;;
2041;SDS011;1026;51.460;7.252;2022-12-11T11:58:21;12.27;;;7.90;;
2041;SDS011;1026;51.460;7.252;2022-12-11T12:00:53;10.23;;;6.20;;
2041;SDS011;1026;51.460;7.252;2022-12-11T12:03:19;11.77;;;6.90;;
2041;SDS011;1026;51.460;7.252;2022-12-11T12:08:40;12.87;;;7.83;;
2041;SDS011;1026;51.460;7.252;2022-12-11T12:14:01;11.30;;;7.87;;
2041;SDS011;1026;51.460;7.252;2022-12-11T12:22:07;13.20;;;7.87;;
2041;SDS011;1026;51.460;7.252;2022-12-11T12:27:22;14.67;;;7.30;;
2041;SDS011;1026;51.460;7.252;2022-12-11T12:30:05;12.57;;;7.43;;
2041;SDS011;1026;51.460;7.252;2022-12-11T12:35:35;12.40;;;7.07;;
2041;SDS011;1026;51.460;7.252;2022-12-11T12:45:46;13.70;;;7.50;;
2041;SDS011;1026;51.460;7.252;2022-12-11T12:48:23;14.83;;;8.90;;
2041;SDS011;1026;51.460;7.252;2022-12-11T12:50:51;12.07;;;6.70;;
2041;SDS011;1026;51.460;7.252;2022-12-11T12:53:19;13.47;;;8.07;;
2041;SDS011;1026;51.460;7.252;2022-12-11T12:55:47;13.03;;;7.80;;
2041;SDS011;1026;51.460;7.252;2022-12-11T13:09:25;14.30;;;8.10;;
2041;SDS011;1026;51.460;7.252;2022-12-11T13:11:52;11.37;;;7.30;;
2041;SDS011;1026;51.460;7.252;2022-12-11T13:20:52;9.23;;;6.83;;
2041;SDS011;1026;51.460;7.252;2022-12-11T13:26:07;14.20;;;9.40;;
2041;SDS011;1026;51.460;7.252;2022-12-11T13:33:45;12.23;;;7.80;;
2041;SDS011;1026;51.460;7.252;2022-12-11T13:39:05;12.00;;;7.07;;
2041;SDS011;1026;51.460;7.252;2022-12-11T13:41:42;10.00;;;7.30;;
2041;SDS011;1026;51.460;7.252;2022-12-11T13:44:14;14.30;;;7.80;;
2041;SDS011;1026;51.460;7.252;2022-12-11T13:46:45;9.30;;;6.53;;
2041;SDS011;1026;51.460;7.252;2022-12-11T13:49:20;13.47;;;8.10;;
2041;SDS011;1026;51.460;7.252;2022-12-11T13:51:51;12.10;;;8.07;;
2041;SDS011;1026;51.460;7.252;2022-12-11T13:54:18;11.80;;;7.93;;
2041;SDS011;1026;51.460;7.252;2022-12-11T13:59:32;10.70;;;7.77;;
2041;SDS011;1026;51.460;7.252;2022-12-11T14:02:03;12.67;;;8.80;;
2041;SDS011;1026;51.460;7.252;2022-12-11T14:04:38;13.67;;;7.20;;
2041;SDS011;1026;51.460;7.252;2022-12-11T14:07:05;9.20;;;6.30;;
2041;SDS011;1026;51.460;7.252;2022-12-11T14:09:33;8.83;;;6.50;;
2041;SDS011;1026;51.460;7.252;2022-12-11T14:12:07;9.80;;;6.43;;
2041;SDS011;1026;51.460;7.252;2022-12-11T14:14:44;14.47;;;8.47;;
2041;SDS011;1026;51.460;7.252;2022-12-11T14:17:23;10.57;;;6.90;;
2041;SDS011;1026;51.460;7.252;2022-12-11T14:19:51;12.90;;;7.03;;
2041;SDS011;1026;51.460;7.252;2022-12-11T14:22:19;12.77;;;7.87;;
2041;SDS011;1026;51.460;7.252;2022-12-11T14:24:49;11.03;;;7.03;;
2041;SDS011;1026;51.460;7.252;2022-12-11T14:27:17;11.60;;;6.00;;
2041;SDS011;1026;51.460;7.252;2022-12-11T14:29:44;9.87;;;7.23;;
2041;SDS011;1026;51.460;7.252;2022-12-11T14:32:17;11.97;;;8.67;;
2041;SDS011;1026;51.460;7.252;2022-12-11T14:34:48;9.23;;;5.83;;
2041;SDS011;1026;51.460;7.252;2022-12-11T14:37:16;9.67;;;6.37;;
2041;SDS011;1026;51.460;7.252;2022-12-11T14:39:47;15.00;;;7.90;;
2041;SDS011;1026;51.460;7.252;2022-12-11T14:42:22;12.50;;;6.90;;
2041;SDS011;1026;51.460;7.252;2022-12-11T14:44:54;10.30;;;6.90;;
2041;SDS011;1026;51.460;7.252;2022-12-11T14:47:26;7.87;;;5.90;;
2041;SDS011;1026;51.460;7.252;2022-12-11T14:52:54;10.80;;;6.77;;
2041;SDS011;1026;51.460;7.252;2022-12-11T14:55:25;11.57;;;7.53;;
2041;SDS011;1026;51.460;7.252;2022-12-11T14:57:58;10.63;;;6.77;;
2041;SDS011;1026;51.460;7.252;2022-12-11T15:00:30;11.00;;;6.10;;
2041;SDS011;1026;51.460;7.252;2022-12-11T15:02:58;12.43;;;6.90;;
2041;SDS011;1026;51.460;7.252;2022-12-11T15:05:26;12.00;;;6.87;;
2041;SDS011;1026;51.460;7.252;2022-12-11T15:08:00;11.23;;;7.33;;
2041;SDS011;1026;51.460;7.252;2022-12-11T15:10:59;15.87;;;7.37;;
2041;SDS011;1026;51.460;7.252;2022-12-11T15:13:30;11.47;;;6.60;;
2041;SDS011;1026;51.460;7.252;2022-12-11T15:15:58;10.80;;;6.57;;
2041;SDS011;1026;51.460;7.252;2022-12-11T15:18:26;14.03;;;7.30;;
2041;SDS011;1026;51.460;7.252;2022-12-11T15:20:56;11.27;;;7.70;;
2041;SDS011;1026;51.460;7.252;2022-12-11T15:23:25;12.73;;;7.17;;
2041;SDS011;1026;51.460;7.252;2022-12-11T15:25:56;10.40;;;6.90;;
2041;SDS011;1026;51.460;7.252;2022-12-11T15:28:28;10.90;;;7.23;;
2041;SDS011;1026;51.460;7.252;2022-12-11T15:30:59;11.10;;;7.17;;
2041;SDS011;1026;51.460;7.252;2022-12-11T15:33:28;8.87;;;6.60;;
2041;SDS011;1026;51.460;7.252;2022-12-11T15:35:56;12.00;;;7.53;;
2041;SDS011;1026;51.460;7.252;2022-12-11T15:38:33;15.87;;;8.10;;
2041;SDS011;1026;51.460;7.252;2022-12-11T15:41:01;13.70;;;7.63;;
2041;SDS011;1026;51.460;7.252;2022-12-11T15:43:27;10.50;;;7.33;;
2041;SDS011;1026;51.460;7.252;2022-12-11T15:45:56;14.90;;;7.50;;
2041;SDS011;1026;51.460;7.252;2022-12-11T15:48:21;11.03;;;6.93;;
2041;SDS011;1026;51.460;7.252;2022-12-11T15:50:51;10.97;;;6.60;;
2041;SDS011;1026;51.460;7.252;2022-12-11T15:53:16;9.67;;;6.90;;
2041;SDS011;1026;51.460;7.252;2022-12-11T15:55:42;10.50;;;6.00;;
2041;SDS011;1026;51.460;7.252;2022-12-11T15:58:11;11.70;;;7.87;;
2041;SDS011;1026;51.460;7.252;2022-12-11T16:00:39;7.20;;;5.23;;
2041;SDS011;1026;51.460;7.252;2022-12-11T16:03:05;11.80;;;7.37;;
2041;SDS011;1026;51.460;7.252;2022-12-11T16:05:31;10.27;;;7.37;;
2041;SDS011;1026;51.460;7.252;2022-12-11T16:07:56;10.90;;;7.00;;
2041;SDS011;1026;51.460;7.252;2022-12-11T16:10:23;9.73;;;7.27;;
2041;SDS011;1026;51.460;7.252;2022-12-11T16:12:50;12.13;;;6.70;;
2041;SDS011;1026;51.460;7.252;2022-12-11T16:15:16;10.70;;;7.10;;
2041;SDS011;1026;51.460;7.252;2022-12-11T16:17:42;10.90;;;6.60;;
2041;SDS011;1026;51.460;7.252;2022-12-11T16:20:08;12.30;;;6.97;;
2041;SDS011;1026;51.460;7.252;2022-12-11T16:22:35;11.23;;;7.23;;
2041;SDS011;1026;51.460;7.252;2022-12-11T16:25:01;16.60;;;7.23;;
2041;SDS011;1026;51.460;7.252;2022-12-11T16:27:27;9.10;;;6.50;;
2041;SDS011;1026;51.460;7.252;2022-12-11T16:29:53;12.80;;;7.27;;
2041;SDS011;1026;51.460;7.252;2022-12-11T16:32:19;9.67;;;7.60;;
2041;SDS011;1026;51.460;7.252;2022-12-11T16:34:44;11.03;;;7.40;;
2041;SDS011;1026;51.460;7.252;2022-12-11T16:37:10;13.30;;;7.60;;
2041;SDS011;1026;51.460;7.252;2022-12-11T16:39:37;12.30;;;7.30;;
2041;SDS011;1026;51.460;7.252;2022-12-11T16:42:03;8.93;;;5.70;;